createdAt,value
2018-07-04T00:00:32.018Z,1.20
2018-07-04T00:02:46.531Z,2.00
2018-07-04T00:05:01.025Z,1.33
2018-07-04T00:07:16.265Z,1.50
2018-07-04T00:09:30.743Z,1.47
2018-07-04T00:11:45.566Z,1.40
2018-07-04T00:13:59.897Z,1.40
2018-07-04T00:16:14.374Z,1.20
2018-07-04T00:18:28.780Z,1.53
2018-07-04T00:20:43.073Z,1.47
2018-07-04T00:22:57.560Z,1.70
2018-07-04T00:25:12.733Z,1.60
2018-07-04T00:27:27.793Z,1.20
2018-07-04T00:29:42.168Z,1.43
2018-07-04T00:31:56.760Z,1.60
2018-07-04T00:34:11.132Z,1.90
2018-07-04T00:36:25.498Z,1.30
2018-07-04T00:38:40.154Z,1.10
2018-07-04T00:40:54.729Z,1.43
2018-07-04T00:43:09.433Z,1.57
2018-07-04T00:45:24.177Z,1.45
2018-07-04T00:47:38.688Z,1.43
2018-07-04T00:49:53.848Z,1.33
2018-07-04T00:52:08.367Z,1.60
2018-07-04T00:54:22.716Z,1.53
2018-07-04T00:56:37.114Z,1.80
2018-07-04T00:58:52.405Z,1.35
2018-07-04T01:01:06.751Z,1.77
2018-07-04T01:03:21.101Z,1.57
2018-07-04T01:05:35.629Z,1.70
2018-07-04T01:07:49.978Z,1.40
2018-07-04T01:10:05.120Z,1.30
2018-07-04T01:12:19.565Z,1.60
2018-07-04T01:14:34.065Z,1.30
2018-07-04T01:16:50.125Z,1.50
2018-07-04T01:19:04.866Z,1.67
2018-07-04T01:21:19.327Z,1.20
2018-07-04T01:23:34.223Z,1.50
2018-07-04T01:25:49.386Z,1.70
2018-07-04T01:28:04.093Z,1.30
2018-07-04T01:30:18.623Z,1.40
2018-07-04T01:32:33.221Z,1.50
2018-07-04T01:34:47.577Z,1.57
2018-07-04T01:37:02.065Z,1.53
2018-07-04T01:39:17.078Z,1.70
2018-07-04T01:41:31.474Z,2.73
2018-07-04T01:43:46.634Z,1.57
2018-07-04T01:46:01.151Z,1.27
2018-07-04T01:48:15.534Z,1.80
2018-07-04T01:50:30.807Z,1.43
2018-07-04T01:52:45.082Z,1.27
2018-07-04T01:54:59.566Z,1.80
2018-07-04T01:57:14.078Z,1.60
2018-07-04T01:59:28.819Z,1.70
2018-07-04T02:01:44.090Z,1.60
2018-07-04T02:03:58.466Z,1.47
2018-07-04T02:06:13.173Z,1.60
2018-07-04T02:08:27.721Z,1.50
2018-07-04T02:10:42.105Z,1.53
2018-07-04T02:12:56.760Z,1.97
2018-07-04T02:15:11.230Z,1.60
2018-07-04T02:17:26.562Z,1.37
2018-07-04T02:19:41.127Z,1.60
2018-07-04T02:21:55.674Z,1.70
2018-07-04T02:24:10.251Z,2.00
2018-07-04T02:26:25.590Z,1.20
2018-07-04T02:28:39.990Z,1.63
2018-07-04T02:30:55.344Z,1.57
2018-07-04T02:33:09.813Z,1.70
2018-07-04T02:35:25.124Z,1.80
2018-07-04T02:37:39.736Z,1.60
2018-07-04T02:39:54.107Z,1.50
2018-07-04T02:42:08.706Z,2.10
2018-07-04T02:44:24.005Z,1.77
2018-07-04T02:46:39.227Z,1.60
2018-07-04T02:48:53.727Z,1.70
2018-07-04T02:51:08.901Z,1.53
2018-07-04T02:53:24.106Z,1.80
2018-07-04T02:55:38.474Z,1.83
2018-07-04T02:57:53.721Z,2.10
2018-07-04T03:00:08.256Z,1.70
2018-07-04T03:02:23.282Z,1.53
2018-07-04T03:04:37.538Z,1.53
2018-07-04T03:06:51.965Z,1.70
2018-07-04T03:09:06.557Z,1.87
2018-07-04T03:11:21.079Z,1.40
2018-07-04T03:13:35.627Z,1.73
2018-07-04T03:15:50.873Z,1.70
2018-07-04T03:18:05.158Z,1.50
2018-07-04T03:20:19.494Z,1.93
2018-07-04T03:22:33.926Z,1.80
2018-07-04T03:24:48.367Z,1.80
2018-07-04T03:27:02.752Z,1.80
2018-07-04T03:29:17.230Z,1.60
2018-07-04T03:31:31.658Z,1.33
2018-07-04T03:33:46.136Z,1.60
2018-07-04T03:36:01.538Z,1.90
2018-07-04T03:38:16.723Z,1.60
2018-07-04T03:40:31.106Z,1.80
2018-07-04T03:42:45.525Z,2.07
2018-07-04T03:45:00.158Z,2.20
2018-07-04T03:47:19.718Z,1.90
2018-07-04T03:57:34.215Z,2.07
2018-07-04T04:07:35.824Z,1.70
2018-07-04T04:17:37.119Z,1.70
2018-07-04T04:27:37.596Z,1.40
2018-07-04T04:37:38.106Z,1.80
2018-07-04T04:47:35.476Z,1.40
2018-07-04T04:57:35.710Z,1.73
2018-07-04T05:07:35.318Z,2.00
2018-07-04T05:17:32.198Z,1.80
2018-07-04T05:27:32.571Z,1.67
2018-07-04T05:37:40.186Z,1.70
2018-07-04T05:39:54.447Z,1.80
2018-07-04T05:42:08.954Z,1.80
2018-07-04T05:44:23.787Z,1.97
2018-07-04T05:46:38.299Z,2.13
2018-07-04T05:48:52.781Z,2.10
2018-07-04T05:51:07.325Z,1.50
2018-07-04T05:53:21.664Z,1.70
2018-07-04T05:55:36.035Z,1.90
2018-07-04T05:57:50.453Z,1.70
2018-07-04T06:00:04.822Z,1.83
2018-07-04T06:02:20.845Z,1.60
2018-07-04T06:04:36.258Z,1.73
2018-07-04T06:06:50.833Z,2.10
2018-07-04T06:09:05.279Z,2.67
2018-07-04T06:11:19.929Z,2.40
2018-07-04T06:13:34.294Z,1.90
2018-07-04T06:15:48.722Z,1.73
2018-07-04T06:18:03.220Z,2.10
2018-07-04T06:20:18.353Z,2.10
2018-07-04T06:22:32.738Z,1.90
2018-07-04T06:24:48.358Z,1.57
2018-07-04T06:27:03.591Z,2.47
2018-07-04T06:29:18.745Z,2.80
2018-07-04T06:31:33.333Z,2.63
2018-07-04T06:33:47.753Z,2.37
2018-07-04T06:36:02.420Z,3.67
2018-07-04T06:38:04.489Z,2.70
2018-07-04T06:40:07.432Z,3.13
2018-07-04T06:42:15.137Z,2.87
2018-07-04T06:44:17.436Z,2.97
2018-07-04T06:46:21.010Z,2.87
2018-07-04T06:48:24.576Z,3.67
2018-07-04T06:50:26.687Z,2.47
2018-07-04T06:52:28.881Z,3.10
2018-07-04T06:54:30.983Z,3.40
2018-07-04T06:56:33.039Z,3.90
2018-07-04T06:58:35.248Z,3.43
2018-07-04T07:00:37.369Z,3.37
2018-07-04T07:02:39.463Z,2.43
2018-07-04T07:04:54.535Z,2.60
2018-07-04T07:07:09.618Z,2.50
2018-07-04T07:09:24.309Z,3.00
2018-07-04T07:11:39.081Z,2.90
2018-07-04T07:13:53.782Z,3.50
2018-07-04T07:16:09.881Z,3.10
2018-07-04T07:18:24.182Z,3.37
2018-07-04T07:20:38.522Z,2.87
2018-07-04T07:22:53.411Z,4.07
2018-07-04T07:25:07.761Z,3.87
2018-07-04T07:27:22.902Z,4.27
2018-07-04T07:29:37.453Z,3.90
2018-07-04T07:31:51.913Z,3.30
2018-07-04T07:34:06.368Z,3.20
2018-07-04T07:36:20.917Z,3.97
2018-07-04T07:38:35.297Z,4.13
2018-07-04T07:40:50.430Z,3.80
2018-07-04T07:43:04.892Z,4.13
2018-07-04T07:45:19.082Z,4.13
2018-07-04T07:47:33.538Z,3.63
2018-07-04T07:49:48.337Z,4.43
2018-07-04T07:52:02.989Z,4.10
2018-07-04T07:54:18.386Z,4.00
2018-07-04T07:56:32.781Z,3.47
2018-07-04T07:58:47.361Z,3.60
2018-07-04T08:01:01.866Z,3.60
2018-07-04T08:03:17.048Z,3.50
2018-07-04T08:05:32.475Z,2.80
2018-07-04T08:07:46.972Z,3.33
2018-07-04T08:10:01.416Z,2.93
2018-07-04T08:12:16.590Z,3.00
2018-07-04T08:14:31.757Z,3.40
2018-07-04T08:16:46.972Z,3.50
2018-07-04T08:19:01.293Z,3.67
2018-07-04T08:21:16.542Z,3.17
2018-07-04T08:23:31.013Z,3.90
2018-07-04T08:25:45.549Z,3.40
2018-07-04T08:28:00.934Z,2.70
2018-07-04T08:30:16.287Z,3.40
2018-07-04T08:32:30.770Z,3.83
2018-07-04T08:34:45.162Z,3.47
2018-07-04T08:36:59.486Z,3.43
2018-07-04T08:39:13.923Z,3.27
2018-07-04T08:41:28.238Z,3.03
2018-07-04T08:43:42.760Z,3.70
2018-07-04T08:45:57.168Z,3.40
2018-07-04T08:48:11.661Z,2.70
2018-07-04T08:50:26.074Z,3.20
2018-07-04T08:52:40.693Z,2.90
2018-07-04T08:54:55.889Z,3.10
2018-07-04T08:57:11.040Z,3.10
2018-07-04T08:59:25.509Z,2.67
2018-07-04T09:01:40.898Z,2.40
2018-07-04T09:03:56.273Z,2.97
2018-07-04T09:06:10.778Z,2.70
2018-07-04T09:08:25.211Z,2.67
2018-07-04T09:10:40.585Z,2.40
2018-07-04T09:12:55.086Z,2.60
2018-07-04T09:15:11.215Z,3.00
2018-07-04T09:17:25.667Z,2.77
2018-07-04T09:19:40.450Z,2.73
2018-07-04T09:21:54.977Z,2.63
2018-07-04T09:24:09.392Z,2.57
2018-07-04T09:26:24.624Z,2.93
2018-07-04T09:28:38.996Z,2.97
2018-07-04T09:30:55.262Z,3.53
2018-07-04T09:33:09.853Z,3.60
2018-07-04T09:35:25.122Z,3.27
2018-07-04T09:37:41.622Z,3.70
2018-07-04T09:39:56.958Z,3.30
2018-07-04T09:42:11.447Z,2.90
2018-07-04T09:44:26.265Z,2.90
2018-07-04T09:46:40.790Z,3.23
2018-07-04T09:48:55.155Z,3.27
2018-07-04T09:51:10.385Z,3.47
2018-07-04T09:53:25.637Z,3.10
2018-07-04T09:55:40.007Z,4.80
2018-07-04T09:57:55.758Z,3.83
2018-07-04T10:00:10.134Z,3.33
2018-07-04T10:02:25.381Z,3.60
2018-07-04T10:04:39.781Z,3.33
2018-07-04T10:06:54.409Z,3.70
2018-07-04T10:09:08.906Z,3.27
2018-07-04T10:11:24.861Z,2.80
2018-07-04T10:13:40.023Z,3.27
2018-07-04T10:15:55.347Z,3.13
2018-07-04T10:18:09.828Z,3.17
2018-07-04T10:20:24.265Z,3.13
2018-07-04T10:22:38.691Z,3.70
2018-07-04T10:24:53.275Z,2.93
2018-07-04T10:27:07.622Z,4.00
2018-07-04T10:29:22.057Z,4.13
2018-07-04T10:31:36.522Z,3.90
2018-07-04T10:33:50.892Z,3.30
2018-07-04T10:36:05.581Z,3.80
2018-07-04T10:38:20.296Z,4.00
2018-07-04T10:40:34.581Z,3.87
2018-07-04T10:42:49.611Z,3.97
2018-07-04T10:45:04.067Z,3.63
2018-07-04T10:47:18.614Z,3.27
2018-07-04T10:49:33.101Z,5.10
2018-07-04T10:51:48.637Z,3.47
2018-07-04T10:54:03.137Z,3.90
2018-07-04T10:56:17.574Z,3.70
2018-07-04T10:58:32.039Z,3.77
2018-07-04T11:00:46.553Z,4.77
2018-07-04T11:03:00.829Z,4.07
2018-07-04T11:05:15.950Z,3.80
2018-07-04T11:07:31.347Z,2.80
2018-07-04T11:09:45.720Z,2.50
2018-07-04T11:12:00.222Z,2.93
2018-07-04T11:14:14.730Z,2.87
2018-07-04T11:16:29.853Z,2.70
2018-07-04T11:18:44.431Z,2.20
2018-07-04T11:20:58.877Z,2.70
2018-07-04T11:23:13.521Z,2.70
2018-07-04T11:25:27.992Z,2.73
2018-07-04T11:27:42.425Z,2.50
2018-07-04T11:29:56.888Z,2.10
2018-07-04T11:32:11.352Z,2.50
2018-07-04T11:34:25.891Z,2.60
2018-07-04T11:36:40.474Z,2.20
2018-07-04T11:38:55.106Z,2.73
2018-07-04T11:41:09.645Z,2.17
2018-07-04T11:43:24.205Z,2.50
2018-07-04T11:45:38.961Z,2.67
2018-07-04T11:47:41.021Z,2.40
2018-07-04T11:49:43.080Z,3.10
2018-07-04T11:51:45.194Z,1.90
2018-07-04T11:53:48.043Z,2.33
2018-07-04T11:55:50.203Z,2.00
2018-07-04T11:57:52.465Z,2.37
2018-07-04T11:59:54.657Z,2.27
2018-07-04T12:01:56.690Z,2.50
2018-07-04T12:04:11.093Z,2.30
2018-07-04T12:06:25.624Z,2.50
2018-07-04T12:08:28.462Z,2.23
2018-07-04T12:10:30.946Z,2.20
2018-07-04T12:12:33.015Z,2.20
2018-07-04T12:14:35.302Z,2.20
2018-07-04T12:16:37.374Z,2.33
2018-07-04T12:18:40.209Z,2.50
2018-07-04T12:20:42.311Z,2.30
2018-07-04T12:22:44.385Z,2.23
2018-07-04T12:24:47.453Z,2.33
2018-07-04T12:26:49.646Z,4.17
2018-07-04T12:28:52.774Z,2.40
2018-07-04T12:30:54.965Z,2.37
2018-07-04T12:32:57.138Z,2.17
2018-07-04T12:34:59.319Z,2.40
2018-07-04T12:37:02.146Z,2.50
2018-07-04T12:39:04.209Z,3.00
2018-07-04T12:41:06.407Z,2.23
2018-07-04T12:43:08.476Z,2.27
2018-07-04T12:45:11.326Z,2.10
2018-07-04T12:47:13.443Z,2.97
2018-07-04T12:49:16.245Z,2.37
2018-07-04T12:51:18.305Z,4.20
2018-07-04T12:53:20.381Z,2.30
2018-07-04T12:55:34.764Z,2.80
2018-07-04T12:57:49.929Z,2.83
2018-07-04T13:00:05.153Z,2.43
2018-07-04T13:02:19.750Z,3.27
2018-07-04T13:04:34.304Z,2.97
2018-07-04T13:06:48.930Z,2.33
2018-07-04T13:09:03.382Z,2.87
2018-07-04T13:11:17.695Z,6.57
2018-07-04T13:13:32.349Z,5.13
2018-07-04T13:15:48.509Z,4.10
2018-07-04T13:18:02.902Z,3.10
2018-07-04T13:20:17.248Z,2.20
2018-07-04T13:22:31.617Z,2.20
2018-07-04T13:24:46.077Z,3.07
2018-07-04T13:27:00.665Z,2.97
2018-07-04T13:29:15.121Z,3.50
2018-07-04T13:31:29.541Z,2.53
2018-07-04T13:33:43.992Z,2.77
2018-07-04T13:35:58.210Z,2.40
2018-07-04T13:38:12.655Z,2.07
2018-07-04T13:40:27.248Z,1.77
2018-07-04T13:42:41.626Z,1.70
2018-07-04T13:44:55.947Z,1.60
2018-07-04T13:47:10.449Z,1.43
2018-07-04T13:49:25.138Z,2.40
2018-07-04T13:51:39.550Z,2.00
2018-07-04T13:53:54.851Z,2.10
2018-07-04T13:56:09.256Z,1.73
2018-07-04T13:58:24.631Z,1.40
2018-07-04T14:00:39.353Z,1.80
2018-07-04T14:02:54.746Z,1.50
2018-07-04T14:05:09.087Z,1.60
2018-07-04T14:07:23.842Z,1.33
2018-07-04T14:09:38.528Z,1.40
2018-07-04T14:11:53.109Z,1.17
2018-07-04T14:14:08.517Z,1.30
2018-07-04T14:16:23.105Z,1.00
2018-07-04T14:18:37.458Z,1.20
2018-07-04T14:20:51.970Z,1.37
2018-07-04T14:23:06.373Z,1.30
2018-07-04T14:25:20.762Z,1.33
2018-07-04T14:27:35.372Z,1.30
2018-07-04T14:29:49.797Z,1.37
2018-07-04T14:32:04.352Z,0.97
2018-07-04T14:34:19.003Z,1.20
2018-07-04T14:36:33.402Z,0.97
2018-07-04T14:38:47.953Z,1.00
2018-07-04T14:41:02.211Z,1.20
2018-07-04T14:43:17.321Z,1.33
2018-07-04T14:45:31.727Z,1.40
2018-07-04T14:47:46.801Z,1.80
2018-07-04T14:50:02.318Z,2.20
2018-07-04T14:52:16.834Z,1.50
2018-07-04T14:54:31.326Z,1.27
2018-07-04T14:56:46.012Z,3.03
2018-07-04T14:59:00.468Z,1.50
2018-07-04T15:01:14.989Z,1.67
2018-07-04T15:03:29.367Z,1.97
2018-07-04T15:05:45.219Z,1.40
2018-07-04T15:07:59.985Z,1.60
2018-07-04T15:10:14.402Z,1.20
2018-07-04T15:12:29.725Z,1.37
2018-07-04T15:14:44.265Z,1.30
2018-07-04T15:16:58.624Z,1.27
2018-07-04T15:19:13.004Z,1.43
2018-07-04T15:21:28.236Z,1.00
2018-07-04T15:23:42.589Z,1.60
2018-07-04T15:25:56.961Z,1.27
2018-07-04T15:28:12.371Z,1.47
2018-07-04T15:30:26.617Z,1.70
2018-07-04T15:32:41.017Z,1.20
2018-07-04T15:34:57.150Z,1.13
2018-07-04T15:37:11.555Z,1.30
2018-07-04T15:39:26.025Z,1.60
2018-07-04T15:41:40.580Z,2.87
2018-07-04T15:43:54.873Z,1.40
2018-07-04T15:46:09.279Z,1.80
2018-07-04T15:48:24.750Z,1.10
2018-07-04T15:50:39.126Z,1.27
2018-07-04T15:52:53.654Z,1.63
2018-07-04T15:55:08.069Z,1.30
2018-07-04T15:57:22.431Z,1.53
2018-07-04T15:59:36.869Z,1.57
2018-07-04T16:01:51.990Z,1.40
2018-07-04T16:04:07.039Z,1.70
2018-07-04T16:06:22.383Z,1.60
2018-07-04T16:08:37.137Z,1.73
2018-07-04T16:10:51.589Z,1.43
2018-07-04T16:13:09.455Z,1.60
2018-07-04T16:15:24.740Z,1.50
2018-07-04T16:17:39.168Z,1.30
2018-07-04T16:19:53.549Z,1.87
2018-07-04T16:22:08.053Z,1.20
2018-07-04T16:24:22.396Z,1.90
2018-07-04T16:26:36.993Z,1.67
2018-07-04T16:28:51.821Z,1.40
2018-07-04T16:31:06.392Z,1.30
2018-07-04T16:33:20.934Z,2.03
2018-07-04T16:35:35.726Z,1.60
2018-07-04T16:37:50.918Z,2.37
2018-07-04T16:40:06.226Z,2.70
2018-07-04T16:42:20.644Z,1.90
2018-07-04T16:44:35.022Z,1.90
2018-07-04T16:46:49.585Z,2.60
2018-07-04T16:49:04.094Z,1.57
2018-07-04T16:51:19.323Z,2.33
2018-07-04T16:53:33.798Z,2.73
2018-07-04T16:55:49.050Z,4.70
2018-07-04T16:58:04.904Z,2.53
2018-07-04T17:00:19.394Z,2.00
2018-07-04T17:02:33.896Z,2.27
2018-07-04T17:04:48.379Z,2.10
2018-07-04T17:07:02.965Z,1.90
2018-07-04T17:09:17.492Z,2.07
2018-07-04T17:11:32.087Z,2.20
2018-07-04T17:13:47.381Z,1.80
2018-07-04T17:16:02.270Z,1.97
2018-07-04T17:18:16.689Z,1.47
2018-07-04T17:20:31.142Z,1.87
2018-07-04T17:22:45.749Z,1.77
2018-07-04T17:25:01.829Z,2.10
2018-07-04T17:27:16.269Z,1.80
2018-07-04T17:29:30.858Z,1.70
2018-07-04T17:31:45.206Z,2.50
2018-07-04T17:33:59.647Z,2.00
2018-07-04T17:36:14.110Z,2.00
2018-07-04T17:38:28.460Z,1.90
2018-07-04T17:40:42.893Z,2.00
2018-07-04T17:42:57.339Z,2.47
2018-07-04T17:45:11.590Z,2.70
2018-07-04T17:47:26.038Z,2.70
2018-07-04T17:49:40.630Z,2.23
2018-07-04T17:51:55.964Z,2.10
2018-07-04T17:54:10.331Z,1.97
2018-07-04T17:56:24.870Z,1.47
2018-07-04T17:58:39.316Z,2.33
2018-07-04T18:00:53.686Z,2.47
2018-07-04T18:03:08.014Z,2.10
2018-07-04T18:05:22.471Z,2.50
2018-07-04T18:07:36.939Z,2.20
2018-07-04T18:09:51.406Z,2.67
2018-07-04T18:12:07.368Z,2.57
2018-07-04T18:14:21.743Z,2.90
2018-07-04T18:16:36.462Z,2.77
2018-07-04T18:18:50.836Z,2.60
2018-07-04T18:21:05.350Z,2.20
2018-07-04T18:23:20.271Z,2.30
2018-07-04T18:25:34.657Z,2.20
2018-07-04T18:27:49.065Z,2.13
2018-07-04T18:30:03.438Z,1.90
2018-07-04T18:32:17.746Z,2.00
2018-07-04T18:34:32.039Z,2.20
2018-07-04T18:36:46.766Z,2.30
2018-07-04T18:39:01.193Z,1.53
2018-07-04T18:41:15.660Z,2.00
2018-07-04T18:43:30.927Z,2.13
2018-07-04T18:45:45.278Z,1.90
2018-07-04T18:47:59.858Z,1.90
2018-07-04T18:50:15.169Z,2.50
2018-07-04T18:52:29.637Z,2.60
2018-07-04T18:54:44.050Z,2.30
2018-07-04T18:56:58.561Z,1.87
2018-07-04T18:59:12.885Z,2.30
2018-07-04T19:01:27.171Z,3.50
2018-07-04T19:03:41.616Z,2.77
2018-07-04T19:05:56.106Z,1.60
2018-07-04T19:08:10.567Z,2.57
2018-07-04T19:10:25.049Z,2.40
2018-07-04T19:12:39.455Z,2.77
2018-07-04T19:14:54.775Z,2.43
2018-07-04T19:17:09.534Z,2.03
2018-07-04T19:19:23.875Z,2.10
2018-07-04T19:21:38.337Z,1.90
2018-07-04T19:23:52.805Z,2.70
2018-07-04T19:26:07.686Z,4.17
2018-07-04T19:28:22.186Z,3.57
2018-07-04T19:30:36.638Z,3.70
2018-07-04T19:32:51.208Z,3.00
2018-07-04T19:35:05.693Z,2.20
2018-07-04T19:37:20.294Z,2.90
2018-07-04T19:39:35.621Z,2.30
2018-07-04T19:41:50.108Z,2.97
2018-07-04T19:44:04.505Z,2.50
2018-07-04T19:46:18.910Z,2.57
2018-07-04T19:48:33.444Z,2.63
2018-07-04T19:50:48.663Z,2.17
2018-07-04T19:53:03.048Z,2.70
2018-07-04T19:55:17.431Z,2.30
2018-07-04T19:57:31.889Z,2.23
2018-07-04T19:59:46.538Z,2.00
2018-07-04T20:02:01.042Z,2.33
2018-07-04T20:04:15.545Z,2.03
2018-07-04T20:06:30.272Z,2.50
2018-07-04T20:08:44.674Z,2.70
2018-07-04T20:10:59.345Z,2.13
2018-07-04T20:13:13.841Z,2.17
2018-07-04T20:15:29.020Z,2.30
2018-07-04T20:17:44.321Z,2.73
2018-07-04T20:19:58.800Z,2.40
2018-07-04T20:22:13.792Z,2.93
2018-07-04T20:24:28.504Z,2.60
2018-07-04T20:26:42.971Z,2.53
2018-07-04T20:28:57.415Z,2.70
2018-07-04T20:31:12.168Z,3.00
2018-07-04T20:33:26.569Z,2.30
2018-07-04T20:35:41.800Z,2.50
2018-07-04T20:37:57.169Z,2.40
2018-07-04T20:40:11.491Z,3.03
2018-07-04T20:42:25.822Z,2.60
2018-07-04T20:44:41.138Z,3.07
2018-07-04T20:46:55.650Z,2.80
2018-07-04T20:49:10.903Z,2.93
2018-07-04T20:51:25.433Z,2.67
2018-07-04T20:53:39.875Z,2.33
2018-07-04T20:55:54.382Z,2.60
2018-07-04T20:58:08.849Z,2.97
2018-07-04T21:00:23.371Z,2.93
2018-07-04T21:02:37.662Z,2.37
2018-07-04T21:04:52.033Z,2.40
2018-07-04T21:07:07.343Z,2.60
2018-07-04T21:09:21.664Z,2.47
2018-07-04T21:11:36.240Z,2.50
2018-07-04T21:13:50.630Z,3.03
2018-07-04T21:16:05.058Z,2.60
2018-07-04T21:18:20.388Z,2.40
2018-07-04T21:20:34.784Z,1.97
2018-07-04T21:22:49.409Z,2.67
2018-07-04T21:25:03.766Z,2.43
2018-07-04T21:27:18.142Z,2.50
2018-07-04T21:29:32.666Z,2.20
2018-07-04T21:31:47.461Z,3.53
2018-07-04T21:34:01.886Z,2.60
2018-07-04T21:36:16.263Z,3.07
2018-07-04T21:38:31.215Z,2.53
2018-07-04T21:40:46.474Z,2.73
2018-07-04T21:43:01.709Z,3.23
2018-07-04T21:45:16.225Z,2.20
2018-07-04T21:47:30.745Z,2.23
2018-07-04T21:49:45.053Z,2.30
2018-07-04T21:51:59.824Z,2.87
2018-07-04T21:54:14.261Z,2.83
2018-07-04T21:56:28.717Z,2.77
2018-07-04T21:58:43.218Z,2.50
2018-07-04T22:00:58.550Z,2.40
2018-07-04T22:03:13.034Z,3.03
2018-07-04T22:05:27.498Z,3.03
2018-07-04T22:07:43.576Z,3.23
2018-07-04T22:09:57.929Z,3.40
2018-07-04T22:12:13.283Z,3.20
2018-07-04T22:14:27.828Z,3.00
2018-07-04T22:16:42.178Z,3.30
2018-07-04T22:18:56.646Z,2.50
2018-07-04T22:21:12.589Z,2.60
2018-07-04T22:23:27.170Z,2.90
2018-07-04T22:25:41.677Z,3.10
2018-07-04T22:27:56.074Z,2.80
2018-07-04T22:30:10.515Z,3.20
2018-07-04T22:32:24.805Z,3.50
2018-07-04T22:34:40.626Z,3.23
2018-07-04T22:36:55.817Z,2.70
2018-07-04T22:39:10.364Z,2.67
2018-07-04T22:41:24.935Z,3.20
2018-07-04T22:43:39.411Z,3.20
2018-07-04T22:45:53.915Z,2.70
2018-07-04T22:48:08.494Z,3.10
2018-07-04T22:50:22.975Z,3.37
2018-07-04T22:52:37.398Z,2.77
2018-07-04T22:54:51.792Z,2.77
2018-07-04T22:57:07.160Z,2.87
2018-07-04T22:59:22.285Z,2.97
2018-07-04T23:01:36.750Z,2.87
2018-07-04T23:03:51.227Z,3.00
2018-07-04T23:06:05.681Z,3.20
2018-07-04T23:08:20.846Z,3.00
2018-07-04T23:10:35.988Z,3.40
2018-07-04T23:12:50.441Z,2.73
2018-07-04T23:15:05.006Z,2.80
2018-07-04T23:17:19.547Z,2.83
2018-07-04T23:19:34.046Z,3.27
2018-07-04T23:21:48.542Z,3.10
2018-07-04T23:24:02.902Z,2.80
2018-07-04T23:26:17.410Z,3.60
2018-07-04T23:28:31.842Z,3.07
2018-07-04T23:30:47.025Z,2.77
2018-07-04T23:33:02.043Z,2.93
2018-07-04T23:35:16.689Z,2.67
2018-07-04T23:37:31.175Z,2.50
2018-07-04T23:39:45.656Z,3.07
2018-07-04T23:42:00.294Z,3.10
2018-07-04T23:44:14.842Z,2.90
2018-07-04T23:46:29.278Z,2.60
2018-07-04T23:48:43.714Z,2.93
2018-07-04T23:50:58.193Z,3.07
2018-07-04T23:53:12.661Z,3.30
2018-07-04T23:55:27.982Z,3.40
2018-07-04T23:57:42.573Z,2.90
2018-07-04T23:59:57.332Z,3.00
